createdAt,value
2022-11-15T00:01:38.171Z,1.08
2022-11-15T00:04:42.378Z,0.85
2022-11-15T00:07:55.490Z,1.63
2022-11-15T00:11:01.821Z,0.77
2022-11-15T00:14:06.403Z,0.90
2022-11-15T00:17:10.982Z,0.95
2022-11-15T00:20:15.525Z,1.20
2022-11-15T00:23:20.406Z,0.70
2022-11-15T00:26:25.047Z,0.73
2022-11-15T00:29:29.218Z,0.63
2022-11-15T00:32:34.094Z,0.73
2022-11-15T00:35:38.440Z,0.55
2022-11-15T00:38:42.741Z,0.50
2022-11-15T00:41:47.060Z,0.85
2022-11-15T00:44:51.152Z,0.55
2022-11-15T00:47:55.294Z,0.82
2022-11-15T00:50:59.699Z,1.20
2022-11-15T00:54:04.430Z,0.70
2022-11-15T00:57:08.711Z,0.90
2022-11-15T01:00:13.576Z,0.77
2022-11-15T01:03:17.700Z,0.95
2022-11-15T01:06:22.181Z,0.90
2022-11-15T01:09:26.577Z,1.00
2022-11-15T01:12:30.874Z,0.82
2022-11-15T01:15:35.363Z,0.40
2022-11-15T01:18:40.289Z,0.82
2022-11-15T01:21:44.347Z,0.90
2022-11-15T01:24:51.184Z,0.60
2022-11-15T01:27:55.273Z,0.68
2022-11-15T01:31:04.203Z,0.63
2022-11-15T01:34:08.086Z,0.68
2022-11-15T01:37:12.201Z,0.60
2022-11-15T01:40:16.542Z,0.40
2022-11-15T01:43:25.105Z,0.60
2022-11-15T01:46:35.869Z,0.70
2022-11-15T01:49:47.634Z,0.55
2022-11-15T01:52:51.968Z,1.00
2022-11-15T01:55:57.219Z,0.52
2022-11-15T01:59:05.861Z,0.65
2022-11-15T02:02:10.390Z,0.68
2022-11-15T02:05:14.511Z,0.90
2022-11-15T02:08:21.234Z,0.30
2022-11-15T02:11:26.003Z,0.10
2022-11-15T02:14:32.368Z,0.10
2022-11-15T02:18:09.200Z,0.20
2022-11-15T02:21:37.524Z,0.35
2022-11-15T02:25:03.595Z,0.32
2022-11-15T02:28:18.423Z,0.40
2022-11-15T02:31:47.342Z,0.38
2022-11-15T02:35:02.919Z,0.85
2022-11-15T02:38:43.100Z,0.47
2022-11-15T02:41:51.786Z,0.52
2022-11-15T02:44:59.599Z,0.40
2022-11-15T02:48:07.381Z,0.57
2022-11-15T02:51:13.914Z,0.65
2022-11-15T02:54:31.668Z,0.80
2022-11-15T02:57:39.092Z,0.70
2022-11-15T03:00:54.935Z,0.98
2022-11-15T03:04:15.470Z,1.05
2022-11-15T03:07:42.136Z,1.08
2022-11-15T03:10:52.178Z,0.95
2022-11-15T03:14:18.986Z,0.63
2022-11-15T03:17:40.155Z,1.27
2022-11-15T03:20:45.946Z,0.82
2022-11-15T03:23:52.644Z,0.75
2022-11-15T03:27:00.934Z,0.95
2022-11-15T03:30:08.589Z,0.93
2022-11-15T03:33:13.114Z,0.95
2022-11-15T03:36:18.635Z,1.13
2022-11-15T03:39:24.613Z,1.40
2022-11-15T03:42:43.930Z,1.55
2022-11-15T03:45:55.718Z,1.08
2022-11-15T03:49:16.521Z,1.58
2022-11-15T03:52:22.651Z,1.20
2022-11-15T03:55:27.808Z,1.42
2022-11-15T03:58:32.258Z,1.30
2022-11-15T04:01:36.756Z,1.13
2022-11-15T04:04:41.338Z,1.67
2022-11-15T04:07:45.835Z,1.40
2022-11-15T04:10:50.823Z,1.35
2022-11-15T04:13:54.903Z,1.77
2022-11-15T04:16:59.357Z,1.40
2022-11-15T04:20:24.825Z,0.90
2022-11-15T04:23:47.971Z,1.27
2022-11-15T04:29:58.196Z,1.65
2022-11-15T04:33:02.414Z,1.38
2022-11-15T04:36:25.656Z,0.90
2022-11-15T04:39:30.027Z,1.05
2022-11-15T04:42:34.364Z,0.95
2022-11-15T04:45:38.601Z,1.10
2022-11-15T04:48:42.912Z,1.67
2022-11-15T04:51:47.573Z,0.80
2022-11-15T04:54:51.478Z,1.17
2022-11-15T04:58:00.767Z,0.68
2022-11-15T05:01:13.163Z,1.20
2022-11-15T05:04:20.453Z,1.13
2022-11-15T05:07:24.993Z,1.10
2022-11-15T05:10:29.003Z,1.73
2022-11-15T05:13:33.524Z,1.40
2022-11-15T05:16:38.385Z,1.05
2022-11-15T05:19:43.052Z,1.73
2022-11-15T05:22:47.370Z,1.20
2022-11-15T05:25:51.647Z,1.27
2022-11-15T05:28:57.825Z,1.42
2022-11-15T05:32:02.231Z,2.20
2022-11-15T05:35:10.929Z,1.15
2022-11-15T05:38:15.841Z,1.63
2022-11-15T05:41:26.102Z,1.50
2022-11-15T05:44:32.287Z,1.45
2022-11-15T05:47:38.565Z,1.35
2022-11-15T05:50:46.294Z,1.10
2022-11-15T05:53:52.495Z,1.23
2022-11-15T05:56:57.139Z,1.33
2022-11-15T06:00:02.809Z,1.42
2022-11-15T06:03:07.236Z,1.65
2022-11-15T06:06:16.253Z,0.95
2022-11-15T06:09:21.007Z,1.40
2022-11-15T06:12:25.168Z,1.52
2022-11-15T06:15:29.698Z,1.65
2022-11-15T06:18:35.605Z,1.80
2022-11-15T06:21:40.150Z,1.98
2022-11-15T06:24:45.068Z,2.13
2022-11-15T06:27:53.999Z,2.08
2022-11-15T06:31:03.048Z,2.00
2022-11-15T06:34:07.638Z,1.85
2022-11-15T06:37:11.978Z,1.73
2022-11-15T06:40:16.711Z,1.67
2022-11-15T06:43:20.934Z,1.63
2022-11-15T06:46:25.576Z,1.63
2022-11-15T06:49:29.521Z,1.42
2022-11-15T06:52:33.799Z,1.55
2022-11-15T06:55:37.773Z,1.42
2022-11-15T06:58:42.258Z,2.00
2022-11-15T07:01:46.816Z,1.70
2022-11-15T07:04:51.115Z,2.28
2022-11-15T07:07:56.795Z,2.83
2022-11-15T07:11:06.169Z,1.92
2022-11-15T07:14:10.389Z,2.13
2022-11-15T07:17:14.712Z,2.67
2022-11-15T07:20:19.775Z,1.42
2022-11-15T07:23:24.097Z,1.60
2022-11-15T07:26:28.258Z,2.35
2022-11-15T07:29:33.107Z,2.10
2022-11-15T07:32:37.377Z,1.65
2022-11-15T07:35:41.694Z,1.60
2022-11-15T07:38:46.124Z,1.70
2022-11-15T07:42:10.359Z,1.65
2022-11-15T07:45:14.321Z,2.13
2022-11-15T07:48:18.502Z,1.45
2022-11-15T07:51:22.628Z,1.85
2022-11-15T07:54:26.966Z,1.60
2022-11-15T07:57:31.610Z,2.05
2022-11-15T08:00:37.456Z,1.50
2022-11-15T08:03:41.847Z,1.40
2022-11-15T08:06:45.953Z,2.33
2022-11-15T08:09:50.927Z,1.60
2022-11-15T08:13:03.611Z,2.20
2022-11-15T08:19:12.127Z,1.45
2022-11-15T08:22:16.410Z,2.22
2022-11-15T08:25:20.704Z,1.35
2022-11-15T08:28:25.058Z,2.00
2022-11-15T08:31:29.329Z,1.58
2022-11-15T08:34:34.021Z,1.95
2022-11-15T08:37:38.859Z,2.25
2022-11-15T08:40:43.132Z,2.53
2022-11-15T08:43:47.470Z,2.55
2022-11-15T08:46:51.832Z,2.65
2022-11-15T08:49:55.924Z,2.13
2022-11-15T08:53:06.888Z,2.63
2022-11-15T08:56:13.748Z,1.67
2022-11-15T08:59:18.323Z,2.10
2022-11-15T09:02:22.707Z,3.55
2022-11-15T09:05:27.641Z,2.55
2022-11-15T09:08:48.794Z,2.45
2022-11-15T09:11:55.745Z,2.45
2022-11-15T09:15:02.511Z,2.28
2022-11-15T09:18:06.711Z,1.95
2022-11-15T09:21:11.633Z,1.80
2022-11-15T09:24:16.003Z,2.13
2022-11-15T09:27:20.184Z,1.80
2022-11-15T09:30:26.276Z,2.35
2022-11-15T09:33:30.854Z,2.30
2022-11-15T09:36:36.041Z,1.85
2022-11-15T09:39:40.445Z,2.13
2022-11-15T09:42:50.827Z,2.05
